Terminal Aerodrome Forecast
Issued by NWS

Home | Current Version | Previous Version | Graphics & Text | Print | Product List | Glossary On
Versions: 1 2 3 4 5 6 7 8 9 10 11 12 13 14 15 16 17 18 19 20 21 22 23 24 25 26 27 28 29 30 31
366
FTUS43 KABR 151130
TAFATY
TAF
KATY 151130Z 1512/1612 VRB03KT P6SM BKN200
     FM151400 13007KT P6SM -SHRA BKN025
     FM151600 13009KT P6SM BKN060
     FM152300 11011KT P6SM -SHRA OVC050
     FM161000 12008KT 5SM SHRA BR OVC008=

USA.gov is the U.S. government's official web portal to all federal, state and local government web resources and services.